Time;durP1;ratioP1;P1;durP2;ratioP2;P2;SDS_P1;SDS_P2;PMS_P1;PMS_P2;Temp;Humidity;BMP_temperature;BMP_pressure;BME280_temperature;BME280_humidity;BME280_pressure;Samples;Min_cycle;Max_cycle;Signal;HPM_P1;HPM_P2
2023/04/04 00:01:03;;;;;;;2.37;2.17;;;;;;;2.70;68.72;97010.22;5041674;28;20214;-60
2023/04/04 00:03:29;;;;;;;2.93;2.67;;;;;;;2.71;68.98;97009.31;5041578;28;20234;-59
2023/04/04 00:05:56;;;;;;;2.37;2.17;;;;;;;2.61;68.20;97005.53;5041523;28;20672;-60
2023/04/04 00:08:22;;;;;;;1.97;1.73;;;;;;;2.62;68.95;96998.56;5041747;28;20766;-60
2023/04/04 00:10:50;;;;;;;2.60;2.40;;;;;;;2.58;69.10;96999.66;5041316;28;20214;-59
2023/04/04 00:13:16;;;;;;;3.93;2.10;;;;;;;2.51;69.42;96999.16;5041264;28;20199;-60
2023/04/04 00:15:43;;;;;;;2.00;1.90;;;;;;;2.48;69.45;96996.69;5041006;28;20655;-60
2023/04/04 00:18:10;;;;;;;2.90;2.50;;;;;;;2.52;69.25;97003.41;5042471;28;20202;-60
2023/04/04 00:20:36;;;;;;;2.27;2.07;;;;;;;2.48;69.57;96999.28;5043270;28;20235;-59
2023/04/04 00:23:02;;;;;;;2.77;2.30;;;;;;;2.52;69.47;97000.81;5041126;28;20226;-60
2023/04/04 00:25:29;;;;;;;2.23;2.07;;;;;;;2.59;69.05;97007.38;5043122;28;20207;-60
2023/04/04 00:27:59;;;;;;;4.27;2.50;;;;;;;2.46;69.26;96993.31;5045438;28;20215;-59
2023/04/04 00:30:25;;;;;;;3.00;2.00;;;;;;;2.46;69.11;97004.63;5043642;28;20203;-61
2023/04/04 00:32:52;;;;;;;4.37;2.20;;;;;;;2.42;68.74;97002.25;5044845;28;20222;-60
2023/04/04 00:35:18;;;;;;;2.93;2.40;;;;;;;2.41;69.28;97000.56;5045267;28;20219;-59
2023/04/04 00:37:45;;;;;;;2.97;2.20;;;;;;;2.39;70.13;97000.66;5044995;28;20287;-60
2023/04/04 00:40:11;;;;;;;3.27;2.27;;;;;;;2.34;69.86;97000.06;5045205;28;20207;-59
2023/04/04 00:42:38;;;;;;;2.53;2.23;;;;;;;2.33;70.43;96994.94;5045122;28;20285;-60
2023/04/04 00:45:07;;;;;;;2.47;2.13;;;;;;;2.36;69.86;97003.44;5044503;28;20215;-60
2023/04/04 00:47:34;;;;;;;4.13;2.27;;;;;;;2.37;70.10;96999.06;5045793;28;20754;-61
2023/04/04 00:50:01;;;;;;;3.77;2.60;;;;;;;2.32;70.52;96999.31;5044855;28;20210;-59
2023/04/04 00:52:27;;;;;;;2.37;2.10;;;;;;;2.29;69.62;96996.88;5044364;28;20562;-59
2023/04/04 00:54:54;;;;;;;3.30;2.43;;;;;;;2.29;69.57;96988.19;5044928;28;20203;-60
2023/04/04 00:57:21;;;;;;;3.10;2.30;;;;;;;2.25;70.58;96997.13;5044706;28;20206;-61
2023/04/04 00:59:47;;;;;;;3.07;2.17;;;;;;;2.25;70.77;96992.75;5044888;28;20211;-59
2023/04/04 01:02:16;;;;;;;3.77;2.50;;;;;;;2.25;71.29;97002.34;5044438;28;20280;-60
2023/04/04 01:04:43;;;;;;;2.53;2.33;;;;;;;2.22;70.84;96992.91;5043698;28;20207;-60
2023/04/04 01:07:10;;;;;;;2.70;2.20;;;;;;;2.16;71.28;96997.63;5044325;28;20210;-59
2023/04/04 01:09:37;;;;;;;3.23;2.43;;;;;;;2.16;71.40;96992.41;5045012;28;20204;-60
2023/04/04 01:12:04;;;;;;;2.70;2.37;;;;;;;2.12;71.81;97001.31;5044395;28;20218;-59
2023/04/04 01:14:30;;;;;;;2.47;2.20;;;;;;;2.13;72.03;96992.56;5044152;28;20198;-60
2023/04/04 01:16:57;;;;;;;3.47;2.63;;;;;;;2.04;71.41;97003.50;5045000;28;20207;-60
2023/04/04 01:19:30;;;;;;;2.80;2.37;;;;;;;2.05;71.94;97000.81;5044075;28;20302;-59
2023/04/04 01:21:57;;;;;;;3.43;2.50;;;;;;;2.05;72.42;96994.75;5048796;28;20674;-60
2023/04/04 01:24:24;;;;;;;2.53;2.33;;;;;;;1.93;72.44;96991.88;5062319;28;20229;-60
2023/04/04 01:26:52;;;;;;;2.73;2.53;;;;;;;1.98;72.37;96997.69;5064179;28;20211;-61
2023/04/04 01:29:19;;;;;;;3.70;2.30;;;;;;;1.97;72.27;96985.59;5063503;28;20207;-60
2023/04/04 01:31:49;;;;;;;2.40;2.20;;;;;;;1.91;73.05;96980.66;5052386;28;20217;-59
2023/04/04 01:34:21;;;;;;;2.97;2.70;;;;;;;1.93;72.53;96978.84;5045984;28;20293;-60
2023/04/04 01:36:53;;;;;;;3.57;2.80;;;;;;;1.85;73.08;96978.41;5046566;28;20217;-60
2023/04/04 01:39:25;;;;;;;3.43;2.57;;;;;;;1.86;72.93;96981.84;5046607;28;20218;-60
2023/04/04 01:41:54;;;;;;;3.70;2.70;;;;;;;1.81;73.08;96987.31;5045870;28;20198;-59
2023/04/04 01:44:21;;;;;;;4.90;2.77;;;;;;;1.75;73.85;96986.78;5045705;28;20236;-59
2023/04/04 01:46:53;;;;;;;3.10;2.60;;;;;;;1.83;73.62;96985.47;5045351;28;20291;-60
2023/04/04 01:49:20;;;;;;;2.70;2.50;;;;;;;1.75;74.10;96992.84;5043950;28;20260;-59
2023/04/04 01:51:47;;;;;;;3.37;2.60;;;;;;;1.77;73.74;96985.78;5044105;28;20199;-60
2023/04/04 01:54:14;;;;;;;3.00;2.80;;;;;;;1.79;74.37;96989.16;5043239;28;20626;-60
2023/04/04 01:56:40;;;;;;;2.90;2.70;;;;;;;1.79;74.44;96983.94;5044234;28;20239;-59
2023/04/04 01:59:08;;;;;;;3.10;2.80;;;;;;;1.74;75.06;96982.50;5043986;28;20221;-60
2023/04/04 02:01:35;;;;;;;3.40;2.90;;;;;;;1.69;75.00;96985.38;5044287;28;20244;-60
2023/04/04 02:04:02;;;;;;;5.07;2.87;;;;;;;1.70;74.86;96983.59;5044532;28;20331;-60
2023/04/04 02:06:29;;;;;;;2.87;2.53;;;;;;;1.71;75.26;96986.13;5043783;28;20201;-59
2023/04/04 02:08:55;;;;;;;4.27;2.97;;;;;;;1.66;75.22;96982.06;5043401;28;20645;-60
2023/04/04 02:11:22;;;;;;;3.00;2.70;;;;;;;1.55;75.49;96980.03;5043211;28;20591;-60
2023/04/04 02:13:48;;;;;;;3.80;2.60;;;;;;;1.59;75.73;96981.56;5042765;28;20213;-60
2023/04/04 02:16:17;;;;;;;3.27;2.97;;;;;;;1.49;76.45;96986.38;5043200;28;20272;-60
2023/04/04 02:18:43;;;;;;;3.63;2.70;;;;;;;1.49;75.59;96981.19;5042397;28;20301;-60
2023/04/04 02:21:10;;;;;;;3.63;2.67;;;;;;;1.61;75.52;96984.91;5042776;28;20324;-60
2023/04/04 02:23:37;;;;;;;3.73;2.90;;;;;;;1.57;75.13;96982.53;5042846;28;20231;-60
2023/04/04 02:26:04;;;;;;;3.20;2.90;;;;;;;1.49;75.57;96986.38;5043173;28;20275;-60
2023/04/04 02:28:31;;;;;;;3.30;3.00;;;;;;;1.39;75.67;96973.91;5043158;28;20208;-58
2023/04/04 02:31:00;;;;;;;6.17;2.93;;;;;;;1.36;76.14;96995.78;5042664;28;20246;-58
2023/04/04 02:33:31;;;;;;;3.20;3.00;;;;;;;1.35;75.56;96978.44;5042830;28;20205;-60
2023/04/04 02:35:58;;;;;;;3.07;2.87;;;;;;;1.38;76.24;96982.69;5043533;28;20627;-59
2023/04/04 02:38:24;;;;;;;3.00;2.70;;;;;;;1.29;75.78;96983.97;5043024;28;20223;-59
2023/04/04 02:40:51;;;;;;;3.40;2.90;;;;;;;1.32;75.55;96985.56;5042132;28;20657;-59
2023/04/04 02:43:18;;;;;;;4.23;2.97;;;;;;;1.21;75.12;96987.88;5042287;28;20237;-59
2023/04/04 02:45:45;;;;;;;4.47;3.27;;;;;;;1.28;75.55;96981.44;5043031;28;20209;-60
2023/04/04 02:48:12;;;;;;;3.37;3.07;;;;;;;1.29;76.11;96989.19;5042253;28;20317;-59
2023/04/04 02:50:40;;;;;;;3.00;2.80;;;;;;;1.25;75.73;96984.19;5042711;28;20195;-59
2023/04/04 02:53:07;;;;;;;3.10;2.90;;;;;;;1.26;74.88;96983.28;5042438;28;20212;-60
2023/04/04 02:55:33;;;;;;;3.43;3.10;;;;;;;1.19;75.54;96979.31;5042964;28;20218;-60
2023/04/04 02:58:01;;;;;;;3.73;3.37;;;;;;;1.19;75.62;96976.72;5041560;28;20211;-59
2023/04/04 03:00:28;;;;;;;3.20;2.90;;;;;;;1.17;75.37;96986.38;5042660;28;20241;-60
2023/04/04 03:02:54;;;;;;;5.97;3.10;;;;;;;1.06;76.41;96976.50;5042070;28;20698;-61
2023/04/04 03:05:21;;;;;;;3.20;2.90;;;;;;;1.09;76.31;96980.69;5043310;28;20205;-59
2023/04/04 03:07:54;;;;;;;3.37;2.90;;;;;;;0.99;76.90;96977.72;5043627;28;20207;-60
2023/04/04 03:10:21;;;;;;;3.23;2.93;;;;;;;1.06;76.75;96980.88;5042205;28;20697;-59
2023/04/04 03:12:47;;;;;;;3.60;3.30;;;;;;;1.06;76.97;96980.88;5041980;28;20207;-60
2023/04/04 03:15:14;;;;;;;3.37;3.07;;;;;;;1.06;76.58;96988.69;5042170;28;20233;-60
2023/04/04 03:17:40;;;;;;;3.47;3.17;;;;;;;0.92;76.62;96987.56;5041667;28;20665;-59
2023/04/04 03:20:08;;;;;;;4.57;3.23;;;;;;;0.92;76.22;96984.16;5041616;28;20235;-60
2023/04/04 03:22:36;;;;;;;3.17;2.97;;;;;;;0.93;77.07;96981.47;5042068;28;20217;-60
2023/04/04 03:25:05;;;;;;;3.30;2.67;;;;;;;0.94;78.06;96980.56;5043071;28;20234;-60
2023/04/04 03:27:32;;;;;;;3.93;3.27;;;;;;;0.93;77.50;96984.06;5041828;28;20201;-60
2023/04/04 03:29:58;;;;;;;3.23;2.97;;;;;;;1.04;76.91;96980.06;5042178;28;20310;-59
2023/04/04 03:32:26;;;;;;;3.23;2.90;;;;;;;1.05;76.80;96979.16;5041614;28;20203;-60
2023/04/04 03:34:52;;;;;;;5.30;3.70;;;;;;;0.99;77.39;96977.72;5040928;28;21303;-59
2023/04/04 03:37:19;;;;;;;3.30;3.00;;;;;;;0.94;77.25;96966.69;5041643;28;20670;-59
2023/04/04 03:39:46;;;;;;;3.47;3.13;;;;;;;0.97;76.99;96971.75;5041810;28;20193;-60
2023/04/04 03:42:14;;;;;;;5.83;3.30;;;;;;;0.91;76.49;96972.06;5041685;28;20209;-61
2023/04/04 03:44:41;;;;;;;3.57;3.20;;;;;;;0.92;76.58;96969.34;5042159;28;20254;-58
2023/04/04 03:47:08;;;;;;;3.83;3.43;;;;;;;0.98;76.11;96969.06;5041579;28;20202;-61
2023/04/04 03:49:34;;;;;;;3.80;3.40;;;;;;;0.82;76.85;96968.13;5040867;28;20520;-61
2023/04/04 03:52:02;;;;;;;3.33;3.03;;;;;;;0.86;77.07;96972.28;5041547;28;20222;-58
2023/04/04 03:54:29;;;;;;;3.40;3.10;;;;;;;0.88;76.93;96973.06;5041922;28;20405;-59
2023/04/04 03:56:55;;;;;;;4.43;3.53;;;;;;;0.85;77.30;96977.56;5044702;28;20262;-61
2023/04/04 03:59:23;;;;;;;5.37;3.80;;;;;;;0.73;76.91;96975.56;5044697;28;20633;-60
2023/04/04 04:01:50;;;;;;;3.53;3.23;;;;;;;0.80;77.55;96975.19;5049463;28;20202;-60
2023/04/04 04:04:16;;;;;;;3.00;2.80;;;;;;;0.78;78.81;96977.00;5046147;28;20226;-60
2023/04/04 04:06:43;;;;;;;4.00;3.60;;;;;;;0.72;78.08;96977.31;5046023;28;20217;-60
2023/04/04 04:09:11;;;;;;;4.03;3.67;;;;;;;0.63;77.70;96980.38;5045824;28;20211;-59
2023/04/04 04:11:37;;;;;;;3.73;3.30;;;;;;;0.70;78.21;96980.91;5045829;28;20209;-59
2023/04/04 04:14:05;;;;;;;4.30;3.87;;;;;;;0.66;78.18;96993.25;5044882;28;20202;-58
2023/04/04 04:16:33;;;;;;;3.23;3.00;;;;;;;0.71;77.88;96983.44;5045825;28;20209;-59
2023/04/04 04:19:00;;;;;;;3.97;3.57;;;;;;;0.66;78.39;96975.03;5044907;28;20230;-58
2023/04/04 04:21:26;;;;;;;3.70;3.40;;;;;;;0.66;78.47;96988.03;5046502;28;20207;-59
2023/04/04 04:23:52;;;;;;;3.70;3.40;;;;;;;0.63;78.73;96982.13;5045007;28;20670;-59
2023/04/04 04:26:20;;;;;;;4.67;3.37;;;;;;;0.74;78.99;96975.50;5045023;28;20629;-60
2023/04/04 04:28:47;;;;;;;4.23;3.00;;;;;;;0.68;79.31;96990.53;5045050;28;20599;-60
2023/04/04 04:31:13;;;;;;;3.50;3.20;;;;;;;0.66;79.06;96982.84;5045415;28;20338;-58
2023/04/04 04:33:41;;;;;;;5.53;3.40;;;;;;;0.62;78.74;96990.84;5045095;28;20211;-59
2023/04/04 04:36:07;;;;;;;3.87;3.20;;;;;;;0.62;79.09;96993.47;5045141;28;20209;-59
2023/04/04 04:38:34;;;;;;;3.10;2.90;;;;;;;0.73;78.10;96988.56;5045106;28;20289;-60
2023/04/04 04:41:00;;;;;;;5.10;3.30;;;;;;;0.67;78.68;96999.28;5045304;28;20196;-58
2023/04/04 04:43:28;;;;;;;3.77;3.00;;;;;;;0.69;79.89;96998.28;5045292;28;20229;-58
2023/04/04 04:45:54;;;;;;;3.57;3.23;;;;;;;0.74;78.70;97006.72;5045170;28;20214;-58
2023/04/04 04:48:21;;;;;;;3.97;3.23;;;;;;;0.81;80.44;97002.91;5044673;28;20200;-59
2023/04/04 04:50:49;;;;;;;3.30;3.10;;;;;;;0.75;78.53;97005.78;5044878;28;20298;-58
2023/04/04 04:53:15;;;;;;;7.40;3.93;;;;;;;0.72;77.77;97003.34;5044963;28;20264;-59
2023/04/04 04:55:42;;;;;;;3.70;3.40;;;;;;;0.70;77.31;97005.19;5044954;28;20206;-58
2023/04/04 04:58:09;;;;;;;4.00;3.40;;;;;;;0.59;78.59;97004.88;5045217;28;20223;-58
2023/04/04 05:00:36;;;;;;;3.67;3.37;;;;;;;0.55;78.05;97005.91;5043986;28;20266;-59
2023/04/04 05:03:05;;;;;;;3.47;3.17;;;;;;;0.60;78.06;97014.38;5041756;28;20858;-59
2023/04/04 05:05:32;;;;;;;3.13;2.90;;;;;;;0.55;78.02;97011.13;5044703;28;20227;-59
2023/04/04 05:08:01;;;;;;;5.73;3.50;;;;;;;0.59;78.22;97015.28;5042500;28;20197;-57
2023/04/04 05:10:27;;;;;;;4.93;3.47;;;;;;;0.67;78.41;97015.75;5044372;28;20395;-59
2023/04/04 05:12:54;;;;;;;4.17;3.63;;;;;;;0.65;77.86;97011.50;5044061;28;20557;-59
2023/04/04 05:15:21;;;;;;;4.53;3.27;;;;;;;0.65;77.92;97012.38;5042504;28;20259;-58
2023/04/04 05:17:47;;;;;;;3.80;3.40;;;;;;;0.74;77.16;97011.09;5044393;28;20221;-58
2023/04/04 05:20:14;;;;;;;4.97;3.17;;;;;;;0.69;78.05;97023.47;5043737;28;20233;-59
2023/04/04 05:22:44;;;;;;;3.93;3.53;;;;;;;0.75;78.15;97016.22;5044717;28;20204;-59
2023/04/04 05:25:12;;;;;;;3.93;3.30;;;;;;;0.74;78.13;97019.75;5044309;28;20237;-59
2023/04/04 05:27:40;;;;;;;4.70;3.63;;;;;;;0.82;77.82;97027.16;5044411;28;20302;-57
2023/04/04 05:30:08;;;;;;;4.30;3.57;;;;;;;0.92;78.94;97018.00;5044068;28;20578;-58
2023/04/04 05:32:35;;;;;;;3.83;3.53;;;;;;;0.93;77.76;97017.91;5047912;28;20224;-58
2023/04/04 05:35:01;;;;;;;4.30;3.90;;;;;;;1.00;76.72;97026.25;5053216;28;20569;-58
2023/04/04 05:37:27;;;;;;;3.80;3.50;;;;;;;0.90;76.23;97020.66;5051211;28;20219;-59
2023/04/04 05:39:54;;;;;;;4.10;3.70;;;;;;;0.92;77.60;97028.41;5053721;28;20232;-60
2023/04/04 05:42:22;;;;;;;3.90;3.60;;;;;;;0.97;77.14;97029.88;5053378;28;20201;-58
2023/04/04 05:44:50;;;;;;;7.90;3.80;;;;;;;1.06;77.28;97032.94;5056804;28;20241;-58
2023/04/04 05:47:17;;;;;;;3.60;3.30;;;;;;;1.07;77.03;97035.47;5045076;28;21221;-59
2023/04/04 05:49:45;;;;;;;8.03;3.50;;;;;;;0.87;76.17;97033.00;5044027;28;20263;-59
2023/04/04 05:52:11;;;;;;;3.90;3.23;;;;;;;1.08;76.46;97031.94;5044753;28;20306;-59
2023/04/04 05:54:37;;;;;;;4.00;3.60;;;;;;;1.02;76.90;97026.19;5043185;28;20250;-59
2023/04/04 05:57:04;;;;;;;6.50;3.80;;;;;;;1.27;76.26;97031.88;5044866;28;20202;-59
2023/04/04 05:59:32;;;;;;;5.20;3.70;;;;;;;1.65;75.20;97038.59;5044141;28;20201;-58
2023/04/04 06:01:59;;;;;;;3.80;3.40;;;;;;;2.12;74.51;97037.84;5043574;28;20210;-59
2023/04/04 06:04:25;;;;;;;4.23;3.57;;;;;;;2.11;72.65;97046.59;5043035;28;20245;-58
2023/04/04 06:06:52;;;;;;;10.73;3.97;;;;;;;2.09;71.83;97038.84;5044257;28;20207;-59
2023/04/04 06:09:18;;;;;;;3.87;3.50;;;;;;;2.25;72.11;97050.16;5043658;28;20220;-59
2023/04/04 06:11:44;;;;;;;4.30;3.30;;;;;;;2.15;71.77;97045.50;5043737;28;20206;-59
2023/04/04 06:14:11;;;;;;;4.40;3.67;;;;;;;1.96;72.56;97049.09;5043166;28;20207;-59
2023/04/04 06:16:39;;;;;;;4.43;4.00;;;;;;;1.82;73.25;97046.38;5043814;28;20222;-58
2023/04/04 06:19:05;;;;;;;4.77;4.00;;;;;;;2.00;73.23;97047.16;5042558;28;20198;-59
2023/04/04 06:21:32;;;;;;;6.30;3.50;;;;;;;1.69;73.51;97047.09;5043382;28;20199;-59
2023/04/04 06:23:59;;;;;;;6.37;3.80;;;;;;;1.98;72.29;97046.41;5042680;28;20231;-59
2023/04/04 06:26:25;;;;;;;4.23;3.77;;;;;;;1.78;74.34;97050.03;5043249;28;20549;-59
2023/04/04 06:28:53;;;;;;;4.03;3.57;;;;;;;1.81;74.06;97049.03;5043043;28;20267;-59
2023/04/04 06:31:20;;;;;;;3.97;3.63;;;;;;;1.62;74.67;97059.59;5048153;28;20214;-59
2023/04/04 06:33:47;;;;;;;3.80;3.50;;;;;;;1.54;74.33;97059.13;5048251;28;20220;-58
2023/04/04 06:36:14;;;;;;;4.27;3.60;;;;;;;1.45;75.22;97062.22;5047592;28;20226;-60
2023/04/04 06:38:40;;;;;;;5.03;4.00;;;;;;;1.58;75.04;97062.44;5044291;28;20560;-58
2023/04/04 06:41:07;;;;;;;4.77;4.10;;;;;;;1.49;75.11;97061.97;5043176;28;20203;-59
2023/04/04 06:43:33;;;;;;;4.50;4.10;;;;;;;1.52;74.96;97062.75;5042431;28;20211;-59
2023/04/04 06:46:00;;;;;;;6.20;4.37;;;;;;;1.58;75.55;97068.50;5042469;28;20249;-58
2023/04/04 06:48:26;;;;;;;4.53;3.77;;;;;;;1.56;75.88;97062.50;5042227;28;20302;-59
2023/04/04 06:50:54;;;;;;;4.40;4.00;;;;;;;1.54;74.71;97066.09;5042748;28;20202;-59
2023/04/04 06:53:22;;;;;;;5.00;3.80;;;;;;;1.52;75.63;97063.59;5042282;28;20225;-59
2023/04/04 06:55:49;;;;;;;4.17;3.77;;;;;;;1.57;75.63;97060.72;5042224;28;20203;-58
2023/04/04 06:58:15;;;;;;;4.57;4.17;;;;;;;1.54;76.04;97058.28;5042316;28;20259;-59
2023/04/04 07:00:42;;;;;;;4.53;4.13;;;;;;;1.61;74.93;97050.06;5042264;28;20209;-58
2023/04/04 07:03:08;;;;;;;3.80;3.50;;;;;;;1.44;74.41;97065.75;5041855;28;20545;-58
2023/04/04 07:05:38;;;;;;;4.30;3.90;;;;;;;1.36;76.26;97058.31;5041991;28;20230;-60
2023/04/04 07:08:06;;;;;;;4.33;3.80;;;;;;;1.43;75.74;97064.03;5042089;28;20214;-59
2023/04/04 07:10:32;;;;;;;7.43;4.13;;;;;;;1.52;74.73;97055.78;5042451;28;20548;-58
2023/04/04 07:12:59;;;;;;;4.30;3.90;;;;;;;1.40;75.72;97056.38;5042089;28;20206;-58
2023/04/04 07:15:26;;;;;;;4.30;3.87;;;;;;;1.45;75.15;97059.63;5041868;28;20211;-59
2023/04/04 07:17:53;;;;;;;4.30;3.90;;;;;;;1.35;75.32;97060.97;5041349;28;20243;-57
2023/04/04 07:20:20;;;;;;;3.93;3.63;;;;;;;1.54;75.78;97055.69;5041382;28;20238;-58
2023/04/04 07:22:46;;;;;;;4.40;3.90;;;;;;;1.49;75.06;97069.78;5041593;28;20237;-58
2023/04/04 07:25:14;;;;;;;6.47;4.23;;;;;;;1.51;75.75;97067.13;5041598;28;20224;-58
2023/04/04 07:27:41;;;;;;;4.07;3.77;;;;;;;1.58;73.89;97065.03;5042733;28;20198;-62
2023/04/04 07:30:09;;;;;;;4.40;4.00;;;;;;;1.55;74.28;97073.88;5045253;28;20215;-57
2023/04/04 07:32:36;;;;;;;4.83;4.33;;;;;;;1.49;73.79;97061.13;5043885;28;20212;-60
2023/04/04 07:35:03;;;;;;;4.37;3.97;;;;;;;1.63;74.30;97065.66;5042319;28;20207;-59
2023/04/04 07:37:30;;;;;;;5.83;4.23;;;;;;;1.86;73.00;97058.31;5043865;28;20208;-58
2023/04/04 07:39:57;;;;;;;4.93;4.43;;;;;;;1.76;73.53;97053.66;5042105;28;20269;-58
2023/04/04 07:42:25;;;;;;;6.77;4.10;;;;;;;1.87;73.60;97053.94;5042031;28;20199;-58
2023/04/04 07:44:52;;;;;;;7.13;4.00;;;;;;;1.82;73.27;97053.34;5041540;28;20230;-59
2023/04/04 07:47:19;;;;;;;4.03;3.73;;;;;;;1.64;73.19;97062.94;5041611;28;20544;-58
2023/04/04 07:49:46;;;;;;;4.43;4.03;;;;;;;1.68;73.74;97061.88;5040887;28;20275;-58
2023/04/04 07:52:12;;;;;;;4.33;3.90;;;;;;;1.91;73.60;97056.31;5041759;28;20216;-59
2023/04/04 07:54:40;;;;;;;4.70;4.00;;;;;;;2.23;73.02;97059.00;5042007;28;20196;-58
2023/04/04 07:57:08;;;;;;;4.30;3.90;;;;;;;2.46;70.93;97062.03;5043143;28;20263;-58
2023/04/04 07:59:36;;;;;;;5.80;4.30;;;;;;;2.91;71.29;97056.03;5041811;28;20198;-58
2023/04/04 08:02:04;;;;;;;6.20;4.27;;;;;;;3.27;70.84;97060.09;5041863;28;20202;-58
2023/04/04 08:04:30;;;;;;;7.00;4.07;;;;;;;3.63;69.73;97051.88;5040502;28;20238;-59
2023/04/04 08:06:57;;;;;;;4.40;4.00;;;;;;;3.85;67.61;97047.06;5041126;28;20217;-60
2023/04/04 08:09:23;;;;;;;4.47;4.07;;;;;;;4.00;64.62;97046.13;5041060;28;20207;-59
2023/04/04 08:11:50;;;;;;;5.10;3.80;;;;;;;4.09;64.60;97036.88;5041255;28;20294;-58
2023/04/04 08:14:16;;;;;;;5.80;3.90;;;;;;;4.17;64.65;97042.47;5040808;28;20265;-58
2023/04/04 08:16:44;;;;;;;4.00;3.70;;;;;;;4.25;64.63;97037.63;5041358;28;20195;-59
2023/04/04 08:19:11;;;;;;;4.23;3.83;;;;;;;4.33;63.61;97041.44;5040450;28;20247;-59
2023/04/04 08:21:38;;;;;;;4.23;3.83;;;;;;;4.45;62.29;97035.44;5041503;28;20234;-59
2023/04/04 08:24:05;;;;;;;4.30;3.90;;;;;;;4.47;63.77;97033.56;5040657;28;20550;-59
2023/04/04 08:26:31;;;;;;;4.40;3.90;;;;;;;4.78;62.12;97047.34;5040998;28;20233;-59
2023/04/04 08:28:58;;;;;;;4.37;3.97;;;;;;;4.96;61.91;97041.75;5041071;28;20215;-59
2023/04/04 08:31:27;;;;;;;5.77;3.93;;;;;;;4.47;61.47;97043.19;5040645;28;20218;-59
2023/04/04 08:33:55;;;;;;;4.27;3.63;;;;;;;4.74;61.51;97044.09;5040621;28;20206;-58
2023/04/04 08:36:21;;;;;;;5.60;3.50;;;;;;;4.97;61.12;97038.19;5040557;28;20219;-57
2023/04/04 08:38:48;;;;;;;4.67;3.67;;;;;;;5.43;59.80;97041.25;5041009;28;20223;-59
2023/04/04 08:41:15;;;;;;;5.57;3.80;;;;;;;5.79;59.49;97051.06;5040899;28;20199;-59
2023/04/04 08:43:45;;;;;;;3.83;3.47;;;;;;;6.10;58.19;97041.97;5040571;28;20216;-58
2023/04/04 08:46:12;;;;;;;5.13;4.00;;;;;;;6.26;57.57;97036.50;5042044;28;20294;-58
2023/04/04 08:48:39;;;;;;;5.67;3.67;;;;;;;6.28;56.59;97045.94;5043545;28;20302;-59
2023/04/04 08:51:08;;;;;;;3.67;3.20;;;;;;;6.13;55.85;97040.94;5044407;28;20265;-58
2023/04/04 08:53:36;;;;;;;6.53;3.60;;;;;;;6.55;55.63;97031.84;5044851;28;20221;-59
2023/04/04 08:56:03;;;;;;;3.97;3.57;;;;;;;6.91;53.42;97040.53;5044795;28;20260;-59
2023/04/04 08:58:29;;;;;;;3.93;3.60;;;;;;;7.25;54.05;97030.19;5044951;28;20338;-58
2023/04/04 09:00:56;;;;;;;4.30;3.90;;;;;;;7.58;54.11;97035.56;5045459;28;20281;-59
2023/04/04 09:03:25;;;;;;;4.17;3.30;;;;;;;7.70;51.26;97032.03;5045269;28;20656;-59
2023/04/04 09:05:52;;;;;;;3.87;3.23;;;;;;;7.78;53.15;97034.91;5047136;28;20219;-58
2023/04/04 09:08:20;;;;;;;7.00;3.60;;;;;;;8.02;49.64;97025.13;5047303;28;20822;-59
2023/04/04 09:10:48;;;;;;;3.40;3.20;;;;;;;8.51;50.10;97031.88;5048393;28;20234;-60
2023/04/04 09:13:14;;;;;;;3.87;3.57;;;;;;;9.15;50.34;97032.00;5045732;28;20240;-58
2023/04/04 09:15:44;;;;;;;3.77;3.20;;;;;;;8.56;48.63;97028.91;5044001;28;20223;-59
2023/04/04 09:18:10;;;;;;;3.97;3.53;;;;;;;8.64;47.92;97024.69;5043404;28;20207;-58
2023/04/04 09:20:39;;;;;;;3.70;2.93;;;;;;;8.64;48.37;97029.97;5043836;28;20236;-59
2023/04/04 09:23:06;;;;;;;5.87;3.90;;;;;;;8.67;49.56;97021.81;5043793;28;20208;-59
2023/04/04 09:25:35;;;;;;;4.50;3.67;;;;;;;8.89;49.96;97027.03;5044233;28;20524;-59
2023/04/04 09:28:04;;;;;;;5.57;3.60;;;;;;;9.50;48.90;97020.22;5043864;28;20203;-59
2023/04/04 09:30:31;;;;;;;3.50;3.17;;;;;;;8.89;46.66;97024.38;5043677;28;20211;-60
2023/04/04 09:33:01;;;;;;;3.57;2.97;;;;;;;9.31;47.70;97022.72;5043688;28;20286;-59
2023/04/04 09:35:27;;;;;;;3.43;3.13;;;;;;;9.12;46.21;97026.97;5043927;28;20538;-59
2023/04/04 09:37:53;;;;;;;3.50;3.20;;;;;;;9.20;45.93;97024.56;5043587;28;20699;-59
2023/04/04 09:40:22;;;;;;;3.93;3.20;;;;;;;9.06;47.10;97027.50;5043782;28;20281;-59
2023/04/04 09:42:50;;;;;;;4.73;3.40;;;;;;;9.25;46.35;97030.28;5043487;28;20203;-58
2023/04/04 09:45:16;;;;;;;3.40;3.10;;;;;;;8.90;47.82;97026.06;5043998;28;20224;-59
2023/04/04 09:47:45;;;;;;;3.73;3.33;;;;;;;9.61;46.80;97019.34;5042848;28;20706;-59
2023/04/04 09:50:21;;;;;;;4.17;3.30;;;;;;;9.53;45.75;97015.69;5042984;28;20233;-57
2023/04/04 09:52:48;;;;;;;3.70;3.20;;;;;;;9.57;45.50;97009.16;5043392;28;20204;-59
2023/04/04 09:55:15;;;;;;;4.83;2.93;;;;;;;10.25;47.14;97014.75;5043875;28;20270;-59
2023/04/04 09:57:42;;;;;;;3.03;2.83;;;;;;;9.86;44.59;97018.13;5041848;28;20212;-58
2023/04/04 10:00:12;;;;;;;3.17;2.97;;;;;;;9.79;43.43;97017.78;5043368;28;20215;-59
2023/04/04 10:02:39;;;;;;;3.30;3.10;;;;;;;9.38;43.71;97015.13;5042910;28;20200;-58
2023/04/04 10:05:09;;;;;;;5.00;3.47;;;;;;;9.76;44.95;97017.22;5043234;28;20213;-59
2023/04/04 10:07:39;;;;;;;4.63;3.20;;;;;;;10.27;46.06;97017.28;5042894;28;20203;-59
2023/04/04 10:10:07;;;;;;;3.13;2.73;;;;;;;9.98;42.03;97017.09;5043542;28;20307;-59
2023/04/04 10:12:36;;;;;;;3.27;2.97;;;;;;;9.39;42.17;97022.06;5043497;28;20679;-59
2023/04/04 10:15:03;;;;;;;3.23;2.97;;;;;;;9.22;43.43;97019.97;5043375;28;21331;-60
2023/04/04 10:17:36;;;;;;;3.07;2.67;;;;;;;9.49;43.21;97013.25;5042811;28;20667;-59
2023/04/04 10:20:05;;;;;;;3.67;2.90;;;;;;;9.64;43.40;97029.63;5042506;28;20246;-59
2023/04/04 10:22:32;;;;;;;3.27;2.97;;;;;;;10.06;45.55;97024.38;5043307;28;20298;-58
2023/04/04 10:24:58;;;;;;;3.30;3.10;;;;;;;10.50;43.40;97026.69;5042545;28;20199;-59
2023/04/04 10:27:26;;;;;;;3.40;3.10;;;;;;;10.57;41.80;97025.19;5044624;28;20219;-59
2023/04/04 10:29:52;;;;;;;3.20;2.90;;;;;;;10.20;42.72;97022.22;5043787;28;20299;-59
2023/04/04 10:32:24;;;;;;;3.27;2.90;;;;;;;10.17;41.96;97019.00;5042845;28;20211;-60
2023/04/04 10:34:57;;;;;;;3.17;2.87;;;;;;;10.70;42.33;97020.50;5042282;28;20289;-58
2023/04/04 10:37:27;;;;;;;3.93;3.10;;;;;;;10.65;42.31;97025.38;5042841;28;20200;-60
2023/04/04 10:39:57;;;;;;;3.20;2.93;;;;;;;10.37;41.41;97018.16;5043088;28;20273;-60
2023/04/04 10:42:26;;;;;;;3.10;2.80;;;;;;;10.23;41.69;97013.22;5042611;28;20216;-59
2023/04/04 10:44:52;;;;;;;3.30;3.07;;;;;;;9.53;42.52;97015.69;5042951;28;20204;-58
2023/04/04 10:47:21;;;;;;;2.97;2.77;;;;;;;9.61;43.35;97011.41;5041600;28;20578;-58
2023/04/04 10:49:49;;;;;;;3.20;2.97;;;;;;;9.94;42.62;97019.16;5042236;28;20209;-59
2023/04/04 10:52:19;;;;;;;4.00;3.10;;;;;;;9.36;41.45;97017.03;5042216;28;20218;-59
2023/04/04 10:54:47;;;;;;;4.67;3.17;;;;;;;9.71;42.01;97014.13;5042398;28;20238;-59
2023/04/04 10:57:16;;;;;;;4.07;2.97;;;;;;;10.01;42.05;97016.81;5042558;28;20191;-59
2023/04/04 11:00:00;;;;;;;5.07;3.27;;;;;;;9.78;42.93;97015.28;5042398;28;20217;-58
2023/04/04 11:02:50;;;;;;;3.47;3.17;;;;;;;9.80;41.47;97002.78;5042416;28;20546;-59
2023/04/04 11:05:21;;;;;;;3.13;2.83;;;;;;;10.35;41.79;97014.78;5042417;28;20203;-59
2023/04/04 11:07:57;;;;;;;3.00;2.80;;;;;;;10.03;40.28;97012.22;5042133;28;20285;-59
2023/04/04 11:10:25;;;;;;;6.97;3.30;;;;;;;10.16;40.36;97014.72;5041562;28;20285;-59
2023/04/04 11:12:55;;;;;;;2.90;2.70;;;;;;;10.62;39.97;96999.19;5042212;28;20206;-59
2023/04/04 11:15:23;;;;;;;3.93;2.90;;;;;;;11.01;39.34;97001.91;5042072;28;20294;-58
2023/04/04 11:17:56;;;;;;;4.20;2.93;;;;;;;11.34;40.23;96998.88;5041551;28;20230;-59
2023/04/04 11:20:23;;;;;;;6.97;3.27;;;;;;;10.76;40.20;96995.31;5041794;28;20231;-58
2023/04/04 11:23:03;;;;;;;3.50;2.80;;;;;;;11.22;39.69;96992.91;5041735;28;20548;-60
2023/04/04 11:25:31;;;;;;;3.13;2.90;;;;;;;11.84;39.54;97003.06;5041832;28;20195;-59
2023/04/04 11:27:59;;;;;;;3.20;2.57;;;;;;;10.92;36.72;97003.56;5041889;28;20199;-59
2023/04/04 11:30:27;;;;;;;4.10;2.60;;;;;;;10.97;37.65;97002.19;5041721;28;20628;-59
2023/04/04 11:32:57;;;;;;;3.00;2.80;;;;;;;11.10;36.72;97006.38;5041433;28;20264;-59
2023/04/04 11:35:23;;;;;;;3.20;2.90;;;;;;;11.39;37.70;96994.00;5041637;28;20295;-58
2023/04/04 11:38:02;;;;;;;3.17;2.87;;;;;;;11.47;36.49;96988.84;5049137;28;20214;-58
2023/04/04 11:40:40;;;;;;;2.87;2.67;;;;;;;11.75;37.52;96990.69;5059249;28;20264;-57
2023/04/04 11:43:11;;;;;;;2.73;2.53;;;;;;;11.58;36.06;96994.00;5051685;28;20577;-59